createdAt,value
2023-02-21T00:01:44.309Z,8.15
2023-02-21T00:05:24.996Z,8.82
2023-02-21T00:09:06.296Z,9.10
2023-02-21T00:12:46.596Z,9.05
2023-02-21T00:16:26.197Z,9.23
2023-02-21T00:20:05.981Z,9.35
2023-02-21T00:23:45.771Z,9.27
2023-02-21T00:27:27.263Z,7.87
2023-02-21T00:31:07.321Z,8.25
2023-02-21T00:34:47.441Z,6.50
2023-02-21T00:38:27.222Z,5.80
2023-02-21T00:42:07.260Z,7.80
2023-02-21T00:45:48.456Z,8.38
2023-02-21T00:49:29.039Z,8.00
2023-02-21T00:53:08.604Z,6.20
2023-02-21T00:56:48.157Z,4.50
2023-02-21T01:00:33.104Z,6.33
2023-02-21T01:04:16.435Z,8.05
2023-02-21T01:07:56.686Z,7.22
2023-02-21T01:11:38.402Z,7.20
2023-02-21T01:15:18.332Z,5.15
2023-02-21T01:18:58.093Z,5.00
2023-02-21T01:22:39.478Z,6.75
2023-02-21T01:26:19.547Z,4.78
2023-02-21T01:29:59.603Z,5.95
2023-02-21T01:33:39.361Z,5.15
2023-02-21T01:37:20.306Z,5.00
2023-02-21T01:41:03.603Z,4.45
2023-02-21T01:44:52.082Z,5.57
2023-02-21T01:48:33.664Z,5.10
2023-02-21T01:52:13.204Z,3.17
2023-02-21T01:55:54.394Z,4.60
2023-02-21T01:59:35.686Z,4.72
2023-02-21T02:03:19.876Z,4.07
2023-02-21T02:06:59.586Z,4.90
2023-02-21T02:10:39.473Z,3.08
2023-02-21T02:14:11.056Z,3.47
2023-02-21T02:17:41.814Z,3.40
2023-02-21T02:21:50.294Z,2.72
2023-02-21T02:25:25.011Z,4.82
2023-02-21T02:29:01.003Z,4.28
2023-02-21T02:32:40.798Z,5.05
2023-02-21T02:36:06.125Z,3.63
2023-02-21T02:39:30.903Z,4.28
2023-02-21T02:42:59.880Z,4.87
2023-02-21T02:46:24.732Z,5.12
2023-02-21T02:49:48.029Z,5.50
2023-02-21T02:53:12.409Z,4.40
2023-02-21T02:56:37.101Z,3.97
2023-02-21T03:00:00.284Z,3.22
2023-02-21T03:03:35.981Z,4.00
2023-02-21T03:07:02.356Z,2.50
2023-02-21T03:10:29.731Z,4.87
2023-02-21T03:13:54.764Z,3.08
2023-02-21T03:17:18.824Z,4.37
2023-02-21T03:20:42.819Z,2.80
2023-02-21T03:24:05.916Z,3.67
2023-02-21T03:27:30.400Z,2.22
2023-02-21T03:30:54.504Z,3.95
2023-02-21T03:34:20.787Z,2.10
2023-02-21T03:37:44.737Z,3.33
2023-02-21T03:41:08.167Z,3.10
2023-02-21T03:44:33.231Z,2.40
2023-02-21T03:47:56.267Z,2.53
2023-02-21T03:51:19.554Z,1.75
2023-02-21T03:54:43.319Z,2.43
2023-02-21T03:58:06.398Z,2.33
2023-02-21T04:01:30.620Z,2.20
2023-02-21T04:04:53.735Z,1.67
2023-02-21T04:08:17.872Z,1.77
2023-02-21T04:11:43.928Z,1.98
2023-02-21T04:15:06.771Z,1.33
2023-02-21T04:18:31.332Z,1.70
2023-02-21T04:21:54.741Z,1.60
2023-02-21T04:25:17.758Z,1.37
2023-02-21T04:28:40.998Z,1.40
2023-02-21T04:32:07.067Z,1.65
2023-02-21T04:35:31.369Z,1.52
2023-02-21T04:38:54.573Z,1.13
2023-02-21T04:42:17.009Z,1.40
2023-02-21T04:45:40.267Z,1.40
2023-02-21T04:49:02.716Z,0.93
2023-02-21T04:52:26.721Z,1.75
2023-02-21T04:55:51.961Z,0.70
2023-02-21T04:59:14.807Z,0.60
2023-02-21T05:02:37.391Z,1.33
2023-02-21T05:06:02.371Z,0.70
2023-02-21T05:09:25.996Z,0.70
2023-02-21T05:12:48.641Z,1.00
2023-02-21T05:16:11.257Z,0.50
2023-02-21T05:19:34.170Z,0.80
2023-02-21T05:23:02.076Z,0.88
2023-02-21T05:26:31.519Z,1.45
2023-02-21T05:29:54.576Z,2.20
2023-02-21T05:33:17.574Z,1.67
2023-02-21T05:36:41.104Z,1.62
2023-02-21T05:40:05.226Z,0.70
2023-02-21T05:43:33.792Z,0.47
2023-02-21T05:46:56.841Z,0.85
2023-02-21T05:50:19.474Z,0.93
2023-02-21T05:53:42.242Z,1.30
2023-02-21T05:57:05.048Z,1.10
2023-02-21T06:00:30.589Z,0.90
2023-02-21T06:03:53.185Z,1.25
2023-02-21T06:07:15.499Z,1.10
2023-02-21T06:10:38.127Z,1.10
2023-02-21T06:14:01.320Z,1.17
2023-02-21T06:17:25.756Z,1.00
2023-02-21T06:20:48.144Z,1.02
2023-02-21T06:24:10.938Z,1.08
2023-02-21T06:27:33.153Z,1.07
2023-02-21T06:30:59.321Z,0.57
2023-02-21T06:34:23.266Z,0.95
2023-02-21T06:37:45.819Z,1.17
2023-02-21T06:41:08.657Z,1.00
2023-02-21T06:44:31.497Z,1.02
2023-02-21T06:47:54.084Z,0.80
2023-02-21T06:51:17.943Z,1.40
2023-02-21T06:54:40.414Z,1.13
2023-02-21T06:58:02.837Z,0.95
2023-02-21T07:01:26.682Z,1.30
2023-02-21T07:04:51.850Z,1.02
2023-02-21T07:08:15.728Z,0.50
2023-02-21T07:11:38.051Z,1.00
2023-02-21T07:15:00.703Z,1.27
2023-02-21T07:18:23.774Z,0.93
2023-02-21T07:21:46.323Z,0.70
2023-02-21T07:25:14.501Z,0.80
2023-02-21T07:28:36.812Z,0.80
2023-02-21T07:31:59.459Z,1.45
2023-02-21T07:35:21.757Z,0.73
2023-02-21T07:38:44.768Z,0.70
2023-02-21T07:42:09.090Z,0.70
2023-02-21T07:45:31.866Z,0.70
2023-02-21T07:48:54.315Z,0.60
2023-02-21T07:52:17.503Z,0.73
2023-02-21T07:55:39.831Z,0.70
2023-02-21T07:59:03.842Z,0.70
2023-02-21T08:02:26.081Z,1.20
2023-02-21T08:05:48.703Z,0.75
2023-02-21T08:09:10.812Z,1.40
2023-02-21T08:12:33.868Z,0.62
2023-02-21T08:15:57.548Z,0.80
2023-02-21T08:19:20.750Z,0.90
2023-02-21T08:22:43.311Z,0.52
2023-02-21T08:26:06.843Z,0.80
2023-02-21T08:29:29.493Z,0.70
2023-02-21T08:32:53.470Z,0.60
2023-02-21T08:36:16.230Z,0.70
2023-02-21T08:39:38.621Z,0.70
2023-02-21T08:43:01.547Z,0.73
2023-02-21T08:46:24.624Z,0.60
2023-02-21T08:49:48.900Z,1.42
2023-02-21T08:53:14.972Z,0.65
2023-02-21T08:56:37.769Z,0.75
2023-02-21T09:00:00.705Z,1.83
2023-02-21T09:03:23.097Z,0.50
2023-02-21T09:06:47.045Z,0.88
2023-02-21T09:10:12.730Z,0.60
2023-02-21T09:13:35.140Z,0.80
2023-02-21T09:17:00.750Z,1.55
2023-02-21T09:20:24.318Z,0.80
2023-02-21T09:23:48.214Z,1.10
2023-02-21T09:27:12.484Z,1.30
2023-02-21T09:30:35.048Z,0.70
2023-02-21T09:33:58.031Z,1.02
2023-02-21T09:37:20.578Z,1.20
2023-02-21T09:40:46.683Z,0.90
2023-02-21T09:44:09.792Z,0.53
2023-02-21T09:47:33.449Z,0.82
2023-02-21T09:50:56.220Z,0.82
2023-02-21T09:54:21.803Z,0.65
2023-02-21T09:57:45.442Z,0.90
2023-02-21T10:01:12.525Z,0.82
2023-02-21T10:04:42.293Z,0.85
2023-02-21T10:08:07.500Z,0.82
2023-02-21T10:11:39.105Z,1.37
2023-02-21T10:15:21.475Z,0.80
2023-02-21T10:18:48.477Z,1.20
2023-02-21T10:22:14.611Z,0.70
2023-02-21T10:25:37.537Z,0.60
2023-02-21T10:29:00.028Z,0.57
2023-02-21T10:32:24.894Z,0.75
2023-02-21T10:35:47.156Z,1.02
2023-02-21T10:39:12.346Z,0.88
2023-02-21T10:42:39.953Z,0.90
2023-02-21T10:46:05.191Z,0.50
2023-02-21T10:49:30.646Z,0.80
2023-02-21T10:52:53.686Z,0.80
2023-02-21T10:56:27.137Z,0.70
2023-02-21T10:59:50.804Z,0.93
2023-02-21T11:03:17.227Z,0.70
2023-02-21T11:06:41.922Z,0.93
2023-02-21T11:10:04.742Z,1.02
2023-02-21T11:13:27.637Z,1.07
2023-02-21T11:17:14.388Z,1.15
2023-02-21T11:20:37.441Z,0.93
2023-02-21T11:24:02.980Z,0.80
2023-02-21T11:27:25.733Z,0.98
2023-02-21T11:30:50.904Z,1.20
2023-02-21T11:34:14.835Z,0.95
2023-02-21T11:37:48.645Z,1.30
2023-02-21T11:41:19.607Z,0.90
2023-02-21T11:44:43.680Z,0.80
2023-02-21T11:48:07.045Z,1.08
2023-02-21T11:51:36.094Z,0.88
2023-02-21T11:54:58.807Z,0.88
2023-02-21T11:58:24.924Z,1.20
2023-02-21T12:01:54.926Z,1.07
2023-02-21T12:05:31.855Z,1.20
2023-02-21T12:08:57.024Z,1.02
2023-02-21T12:12:27.611Z,1.23
2023-02-21T12:15:55.843Z,1.25
2023-02-21T12:19:28.502Z,0.97
2023-02-21T12:23:06.152Z,1.90
2023-02-21T12:26:36.395Z,1.17
2023-02-21T12:30:11.360Z,1.67
2023-02-21T12:33:43.232Z,1.42
2023-02-21T12:37:17.907Z,1.10
2023-02-21T12:40:44.044Z,1.10
2023-02-21T12:44:10.124Z,0.93
2023-02-21T12:47:35.565Z,1.12
2023-02-21T12:51:03.563Z,1.27
2023-02-21T12:54:31.678Z,1.10
2023-02-21T12:57:55.797Z,1.00
2023-02-21T13:01:21.971Z,1.25
2023-02-21T13:04:47.714Z,1.37
2023-02-21T13:08:16.572Z,0.90
2023-02-21T13:11:43.116Z,1.25
2023-02-21T13:15:16.046Z,0.80
2023-02-21T13:18:41.943Z,1.10
2023-02-21T13:22:40.144Z,0.77
2023-02-21T13:26:16.947Z,0.90
2023-02-21T13:29:39.906Z,1.10
2023-02-21T13:33:02.535Z,0.90
2023-02-21T13:36:27.597Z,0.82
2023-02-21T13:39:54.295Z,0.70
2023-02-21T13:43:22.504Z,0.60
2023-02-21T13:47:14.001Z,0.80
2023-02-21T13:50:45.654Z,0.90
2023-02-21T13:54:11.028Z,1.23
2023-02-21T13:57:33.542Z,0.90
2023-02-21T14:00:58.171Z,1.27
2023-02-21T14:05:03.118Z,0.80
2023-02-21T14:08:25.630Z,0.82
2023-02-21T14:11:50.200Z,0.90
2023-02-21T14:15:12.745Z,1.00
2023-02-21T14:18:41.285Z,1.20
2023-02-21T14:22:05.867Z,1.10
2023-02-21T14:25:28.795Z,0.85
2023-02-21T14:29:01.998Z,1.13
2023-02-21T14:32:28.166Z,0.90
2023-02-21T14:36:01.460Z,0.90
2023-02-21T14:39:24.431Z,0.70
2023-02-21T14:42:52.529Z,1.07
2023-02-21T14:46:30.481Z,0.95
2023-02-21T14:49:58.947Z,1.33
2023-02-21T14:53:38.486Z,1.80
2023-02-21T14:57:21.167Z,0.82
2023-02-21T15:00:49.412Z,1.10
2023-02-21T15:04:16.979Z,0.85
2023-02-21T15:07:44.177Z,0.70
2023-02-21T15:11:17.258Z,2.20
2023-02-21T15:14:41.848Z,1.75
2023-02-21T15:18:06.620Z,2.00
2023-02-21T15:21:29.695Z,1.35
2023-02-21T15:25:12.122Z,1.20
2023-02-21T15:28:36.372Z,0.65
2023-02-21T15:32:00.332Z,1.30
2023-02-21T15:35:24.766Z,0.50
2023-02-21T15:38:49.028Z,0.80
2023-02-21T15:42:13.554Z,1.12
2023-02-21T15:45:44.176Z,1.00
2023-02-21T15:49:07.220Z,1.02
2023-02-21T15:52:32.390Z,0.93
2023-02-21T15:55:55.033Z,1.30
2023-02-21T15:59:20.201Z,1.40
2023-02-21T16:02:44.580Z,1.25
2023-02-21T16:06:17.791Z,1.42
2023-02-21T16:09:47.378Z,1.57
2023-02-21T16:13:10.313Z,1.60
2023-02-21T16:16:34.555Z,2.00
2023-02-21T16:20:00.308Z,2.85
2023-02-21T16:23:25.706Z,2.40
2023-02-21T16:27:05.651Z,1.37
2023-02-21T16:30:28.995Z,1.70
2023-02-21T16:33:52.598Z,1.75
2023-02-21T16:37:17.272Z,1.00
2023-02-21T16:40:42.544Z,2.10
2023-02-21T16:44:05.126Z,3.03
2023-02-21T16:47:28.614Z,3.20
2023-02-21T16:50:52.501Z,2.70
2023-02-21T16:54:17.569Z,1.58
2023-02-21T16:57:40.562Z,1.95
2023-02-21T17:01:05.846Z,1.77
2023-02-21T17:04:29.991Z,2.40
2023-02-21T17:07:53.136Z,2.78
2023-02-21T17:11:19.186Z,2.33
2023-02-21T17:14:44.645Z,3.80
2023-02-21T17:18:08.052Z,3.97
2023-02-21T17:21:32.307Z,4.62
2023-02-21T17:24:56.360Z,4.78
2023-02-21T17:28:21.148Z,4.85
2023-02-21T17:31:44.273Z,6.40
2023-02-21T17:35:07.850Z,4.65
2023-02-21T17:38:32.192Z,4.37
2023-02-21T17:41:56.790Z,2.95
2023-02-21T17:45:27.375Z,2.30
2023-02-21T17:48:51.820Z,2.25
2023-02-21T17:52:15.505Z,2.47
2023-02-21T17:55:42.851Z,2.58
2023-02-21T17:59:08.312Z,2.65
2023-02-21T18:02:34.581Z,3.20
2023-02-21T18:05:57.981Z,2.85
2023-02-21T18:09:21.878Z,2.97
2023-02-21T18:12:46.018Z,4.37
2023-02-21T18:16:10.041Z,4.72
2023-02-21T18:19:35.567Z,6.40
2023-02-21T18:22:59.520Z,7.45
2023-02-21T18:26:24.658Z,8.32
2023-02-21T18:29:48.737Z,7.93
2023-02-21T18:33:16.282Z,6.33
2023-02-21T18:36:47.417Z,7.22
2023-02-21T18:40:13.067Z,5.20
2023-02-21T18:43:37.449Z,5.03
2023-02-21T18:47:02.726Z,5.35
2023-02-21T18:50:27.060Z,7.40
2023-02-21T18:53:53.878Z,8.88
2023-02-21T18:57:19.178Z,9.20
2023-02-21T19:00:43.638Z,9.82
2023-02-21T19:04:07.064Z,10.07
2023-02-21T19:07:36.990Z,10.57
2023-02-21T19:11:02.652Z,9.05
2023-02-21T19:14:28.493Z,9.60
2023-02-21T19:17:54.778Z,9.43
2023-02-21T19:21:18.663Z,10.23
2023-02-21T19:24:43.315Z,10.35
2023-02-21T19:28:17.494Z,13.75
2023-02-21T19:31:42.199Z,15.93
2023-02-21T19:35:08.188Z,19.30
2023-02-21T19:38:33.387Z,16.77
2023-02-21T19:42:05.137Z,12.80
2023-02-21T19:45:29.502Z,5.40
2023-02-21T19:48:56.763Z,4.20
2023-02-21T19:52:24.387Z,4.10
2023-02-21T19:55:50.878Z,4.18
2023-02-21T19:59:16.632Z,4.20
2023-02-21T20:02:45.012Z,5.25
2023-02-21T20:06:11.301Z,8.63
2023-02-21T20:09:36.315Z,12.18
2023-02-21T20:13:02.930Z,17.30
2023-02-21T20:16:29.088Z,17.23
2023-02-21T20:19:56.689Z,18.77
2023-02-21T20:23:21.464Z,12.05
2023-02-21T20:26:52.266Z,15.38
2023-02-21T20:30:18.163Z,15.43
2023-02-21T20:33:50.121Z,14.73
2023-02-21T20:37:19.890Z,17.13
2023-02-21T20:40:47.774Z,13.80
2023-02-21T20:44:12.045Z,16.62
2023-02-21T20:47:36.813Z,13.75
2023-02-21T20:51:02.658Z,12.50
2023-02-21T20:54:29.783Z,15.15
2023-02-21T20:57:54.999Z,12.23
2023-02-21T21:01:21.255Z,9.43
2023-02-21T21:04:48.337Z,9.43
2023-02-21T21:08:13.308Z,9.63
2023-02-21T21:11:40.016Z,10.52
2023-02-21T21:15:04.456Z,10.93
2023-02-21T21:18:29.464Z,10.80
2023-02-21T21:21:55.150Z,11.85
2023-02-21T21:25:19.622Z,20.30
2023-02-21T21:28:50.084Z,14.27
2023-02-21T21:32:15.688Z,9.88
2023-02-21T21:35:40.126Z,8.27
2023-02-21T21:39:04.380Z,9.40
2023-02-21T21:42:30.121Z,7.95
2023-02-21T21:45:55.826Z,6.55
2023-02-21T21:49:23.547Z,5.87
2023-02-21T21:52:51.809Z,6.22
2023-02-21T21:56:17.450Z,6.25
2023-02-21T21:59:41.568Z,5.03
2023-02-21T22:03:09.673Z,4.30
2023-02-21T22:06:33.770Z,4.78
2023-02-21T22:09:56.859Z,4.20
2023-02-21T22:13:23.053Z,4.85
2023-02-21T22:16:47.571Z,4.80
2023-02-21T22:20:17.936Z,5.35
2023-02-21T22:23:41.640Z,5.53
2023-02-21T22:27:04.125Z,6.30
2023-02-21T22:30:26.802Z,7.53
2023-02-21T22:33:49.809Z,8.63
2023-02-21T22:37:14.880Z,6.87
2023-02-21T22:40:37.918Z,8.32
2023-02-21T22:44:00.554Z,8.55
2023-02-21T22:47:23.767Z,8.77
2023-02-21T22:50:47.561Z,8.97
2023-02-21T22:54:14.542Z,8.93
2023-02-21T22:57:37.081Z,8.98
2023-02-21T23:01:00.340Z,8.90
2023-02-21T23:04:26.660Z,8.57
2023-02-21T23:07:50.117Z,8.32
2023-02-21T23:11:19.089Z,7.97
2023-02-21T23:14:42.700Z,8.40
2023-02-21T23:18:05.685Z,8.32
2023-02-21T23:21:30.563Z,7.67
2023-02-21T23:24:54.862Z,6.78
2023-02-21T23:28:19.275Z,8.90
2023-02-21T23:31:42.074Z,7.97
2023-02-21T23:35:08.059Z,9.03
2023-02-21T23:38:30.508Z,8.13
2023-02-21T23:41:53.716Z,7.30
2023-02-21T23:45:20.692Z,6.03
2023-02-21T23:48:45.180Z,5.47
2023-02-21T23:52:07.725Z,4.90
2023-02-21T23:55:31.073Z,4.37
2023-02-21T23:58:53.611Z,5.62
